Terminal Aerodrome Forecast
Issued by NWS

Home | Current Version | Previous Version | Text Only | Print | Product List | Glossary On
Versions: 1 2 3 4 5 6 7 8 9 10 11 12 13 14 15
000
FTUS46 KSGX 031720
TAFTRM
TAF
KTRM 031720Z 0318/0418 12006KT P6SM FEW150
     FM031900 14010KT P6SM FEW100
     FM040300 33010KT P6SM SKC
     FM040700 VRB06KT P6SM SKC=

USA.gov is the U.S. government's official web portal to all federal, state and local government web resources and services.